createdAt,value
2023-05-08T00:01:34.442Z,19.41
2023-05-08T00:04:04.838Z,19.49
2023-05-08T00:06:38.270Z,19.62
2023-05-08T00:09:11.814Z,19.63
2023-05-08T00:11:45.936Z,19.96
2023-05-08T00:14:13.679Z,20.07
2023-05-08T00:16:40.771Z,20.16
2023-05-08T00:19:24.610Z,20.36
2023-05-08T00:21:54.634Z,20.27
2023-05-08T00:24:21.930Z,20.40
2023-05-08T00:26:48.669Z,20.50
2023-05-08T00:29:17.432Z,20.44
2023-05-08T00:31:44.422Z,20.36
2023-05-08T00:34:11.329Z,20.30
2023-05-08T00:36:38.122Z,20.42
2023-05-08T00:39:04.935Z,20.34
2023-05-08T00:41:31.778Z,20.21
2023-05-08T00:43:58.657Z,20.14
2023-05-08T00:46:25.411Z,19.88
2023-05-08T00:48:52.515Z,20.09
2023-05-08T00:51:19.256Z,20.02
2023-05-08T00:53:46.763Z,19.83
2023-05-08T00:56:15.464Z,19.41
2023-05-08T00:58:42.677Z,19.40
2023-05-08T01:01:09.622Z,19.42
2023-05-08T01:03:36.734Z,19.28
2023-05-08T01:06:05.154Z,18.93
2023-05-08T01:08:32.260Z,18.55
2023-05-08T01:11:38.315Z,18.92
2023-05-08T01:14:05.137Z,18.83
2023-05-08T01:16:47.073Z,18.79
2023-05-08T01:19:32.948Z,18.82
2023-05-08T01:22:02.924Z,19.10
2023-05-08T01:24:35.906Z,19.01
2023-05-08T01:27:30.501Z,19.33
2023-05-08T01:30:25.309Z,19.36
2023-05-08T01:32:58.466Z,19.13
2023-05-08T01:35:44.162Z,19.04
2023-05-08T01:38:16.779Z,19.15
2023-05-08T01:40:51.919Z,18.93
2023-05-08T01:43:57.173Z,18.78
2023-05-08T01:46:26.563Z,18.68
2023-05-08T01:49:03.585Z,18.83
2023-05-08T01:51:37.697Z,18.95
2023-05-08T01:54:09.477Z,19.01
2023-05-08T01:56:38.446Z,19.15
2023-05-08T01:59:05.750Z,19.28
2023-05-08T02:01:33.504Z,19.44
2023-05-08T02:04:00.623Z,19.57
2023-05-08T02:06:28.529Z,19.78
2023-05-08T02:08:56.338Z,19.89
2023-05-08T02:11:24.734Z,20.01
2023-05-08T02:13:52.090Z,19.91
2023-05-08T02:16:19.613Z,20.08
2023-05-08T02:18:52.598Z,20.03
2023-05-08T02:21:20.101Z,20.10
2023-05-08T02:23:47.129Z,19.88
2023-05-08T02:26:17.242Z,20.00
2023-05-08T02:28:47.058Z,19.72
2023-05-08T02:31:17.730Z,19.81
2023-05-08T02:33:45.436Z,19.82
2023-05-08T02:36:14.616Z,19.97
2023-05-08T02:38:44.715Z,20.07
2023-05-08T02:41:14.152Z,20.02
2023-05-08T02:43:41.215Z,20.12
2023-05-08T02:46:45.319Z,20.19
2023-05-08T02:49:32.600Z,19.99
2023-05-08T02:52:08.945Z,20.25
2023-05-08T02:54:40.554Z,20.10
2023-05-08T02:57:37.978Z,19.93
2023-05-08T03:00:13.214Z,20.02
2023-05-08T03:02:49.052Z,19.89
2023-05-08T03:05:17.566Z,19.93
2023-05-08T03:07:45.838Z,19.94
2023-05-08T03:10:15.736Z,20.02
2023-05-08T03:12:50.472Z,19.38
2023-05-08T03:15:24.222Z,19.65
2023-05-08T03:17:53.723Z,19.97
2023-05-08T03:20:23.136Z,19.70
2023-05-08T03:23:02.754Z,19.63
2023-05-08T03:25:30.535Z,19.98
2023-05-08T03:27:58.954Z,19.85
2023-05-08T03:30:29.124Z,19.95
2023-05-08T03:33:05.871Z,19.64
2023-05-08T03:35:35.550Z,19.64
2023-05-08T03:38:02.638Z,19.90
2023-05-08T03:40:30.206Z,19.81
2023-05-08T03:43:00.653Z,19.84
2023-05-08T03:45:28.373Z,19.49
2023-05-08T03:47:56.214Z,19.56
2023-05-08T03:50:28.020Z,19.54
2023-05-08T03:53:05.586Z,19.56
2023-05-08T03:55:35.306Z,19.57
2023-05-08T03:58:19.085Z,19.36
2023-05-08T04:00:49.814Z,19.17
2023-05-08T04:03:28.850Z,19.37
2023-05-08T04:06:42.082Z,19.43
2023-05-08T04:09:40.121Z,19.44
2023-05-08T04:12:27.100Z,19.54
2023-05-08T04:14:59.190Z,19.51
2023-05-08T04:17:39.671Z,19.49
2023-05-08T04:20:18.332Z,19.57
2023-05-08T04:22:58.333Z,19.34
2023-05-08T04:25:29.229Z,19.17
2023-05-08T04:27:58.590Z,19.21
2023-05-08T04:30:28.018Z,19.23
2023-05-08T04:33:01.364Z,19.59
2023-05-08T04:35:28.782Z,19.22
2023-05-08T04:38:05.567Z,18.44
2023-05-08T04:40:33.762Z,18.96
2023-05-08T04:43:03.025Z,18.26
2023-05-08T04:45:29.945Z,19.14
2023-05-08T04:48:03.026Z,19.48
2023-05-08T04:50:30.779Z,19.70
2023-05-08T04:52:58.813Z,18.80
2023-05-08T04:55:26.334Z,19.09
2023-05-08T04:58:02.423Z,19.48
2023-05-08T05:00:29.766Z,19.48
2023-05-08T05:02:57.338Z,19.06
2023-05-08T05:05:26.635Z,19.11
2023-05-08T05:07:57.535Z,19.28
2023-05-08T05:10:28.652Z,19.37
2023-05-08T05:12:59.175Z,19.05
2023-05-08T05:15:26.237Z,18.79
2023-05-08T05:17:53.595Z,18.80
2023-05-08T05:20:20.798Z,19.14
2023-05-08T05:22:47.586Z,19.31
2023-05-08T05:25:16.975Z,19.41
2023-05-08T05:27:45.253Z,18.80
2023-05-08T05:30:12.621Z,19.22
2023-05-08T05:32:39.789Z,19.32
2023-05-08T05:35:07.725Z,18.83
2023-05-08T05:37:34.583Z,18.94
2023-05-08T05:40:01.610Z,18.93
2023-05-08T05:42:30.137Z,19.09
2023-05-08T05:44:57.095Z,18.80
2023-05-08T05:47:24.201Z,18.78
2023-05-08T05:49:51.346Z,19.20
2023-05-08T05:52:18.242Z,18.59
2023-05-08T05:54:46.882Z,18.22
2023-05-08T05:57:14.120Z,18.57
2023-05-08T05:59:41.809Z,18.27
2023-05-08T06:02:10.677Z,18.78
2023-05-08T06:04:38.390Z,18.54
2023-05-08T06:07:06.890Z,18.95
2023-05-08T06:09:33.735Z,18.92
2023-05-08T06:12:00.723Z,19.48
2023-05-08T06:14:27.730Z,19.36
2023-05-08T06:16:54.419Z,19.61
2023-05-08T06:19:21.457Z,19.83
2023-05-08T06:21:48.301Z,19.94
2023-05-08T06:24:15.691Z,20.00
2023-05-08T06:26:42.500Z,20.12
2023-05-08T06:29:09.376Z,20.14
2023-05-08T06:31:36.206Z,19.82
2023-05-08T06:34:03.186Z,19.46
2023-05-08T06:36:29.982Z,20.03
2023-05-08T06:38:56.930Z,20.07
2023-05-08T06:41:23.758Z,19.52
2023-05-08T06:43:50.658Z,19.72
2023-05-08T06:46:18.239Z,19.78
2023-05-08T06:48:45.014Z,20.11
2023-05-08T06:51:11.960Z,20.00
2023-05-08T06:53:40.949Z,20.16
2023-05-08T06:56:07.973Z,20.07
2023-05-08T06:58:35.771Z,20.24
2023-05-08T07:01:02.472Z,20.41
2023-05-08T07:03:29.208Z,20.34
2023-05-08T07:05:56.149Z,20.39
2023-05-08T07:08:23.037Z,20.67
2023-05-08T07:10:49.882Z,20.57
2023-05-08T07:13:20.093Z,20.69
2023-05-08T07:15:56.889Z,20.65
2023-05-08T07:18:23.921Z,20.74
2023-05-08T07:20:50.825Z,20.31
2023-05-08T07:23:17.579Z,20.25
2023-05-08T07:25:44.514Z,20.31
2023-05-08T07:28:11.947Z,20.39
2023-05-08T07:30:39.164Z,20.70
2023-05-08T07:33:06.832Z,20.63
2023-05-08T07:35:42.545Z,20.53
2023-05-08T07:38:09.465Z,20.40
2023-05-08T07:40:36.154Z,20.77
2023-05-08T07:43:04.133Z,20.76
2023-05-08T07:45:30.961Z,20.67
2023-05-08T07:47:59.047Z,20.48
2023-05-08T07:50:26.621Z,20.09
2023-05-08T07:52:53.991Z,19.91
2023-05-08T07:55:21.692Z,20.07
2023-05-08T07:57:48.568Z,20.36
2023-05-08T08:00:16.094Z,20.33
2023-05-08T08:02:44.343Z,20.38
2023-05-08T08:05:11.819Z,19.91
2023-05-08T08:07:42.708Z,20.21
2023-05-08T08:10:09.954Z,20.08
2023-05-08T08:12:36.769Z,20.26
2023-05-08T08:15:03.790Z,20.94
2023-05-08T08:17:30.595Z,20.80
2023-05-08T08:19:57.666Z,20.80
2023-05-08T08:22:24.914Z,20.55
2023-05-08T08:24:54.658Z,21.01
2023-05-08T08:27:22.104Z,20.90
2023-05-08T08:29:48.959Z,20.62
2023-05-08T08:32:15.945Z,21.27
2023-05-08T08:34:42.973Z,21.22
2023-05-08T08:37:09.649Z,21.28
2023-05-08T08:39:36.644Z,21.83
2023-05-08T08:42:03.860Z,21.97
2023-05-08T08:44:30.645Z,22.33
2023-05-08T08:46:59.148Z,22.89
2023-05-08T08:49:31.264Z,21.80
2023-05-08T08:52:04.068Z,21.90
2023-05-08T08:54:34.890Z,22.00
2023-05-08T08:57:02.253Z,21.96
2023-05-08T08:59:29.976Z,21.90
2023-05-08T09:01:59.064Z,22.90
2023-05-08T09:04:27.556Z,22.94
2023-05-08T09:06:55.147Z,23.00
2023-05-08T09:09:22.638Z,22.69
2023-05-08T09:11:49.565Z,22.68
2023-05-08T09:14:16.550Z,22.17
2023-05-08T09:16:43.828Z,22.43
2023-05-08T09:19:14.626Z,22.53
2023-05-08T09:21:41.693Z,22.72
2023-05-08T09:24:08.506Z,22.33
2023-05-08T09:26:39.741Z,22.55
2023-05-08T09:29:16.047Z,21.69
2023-05-08T09:31:46.820Z,21.27
2023-05-08T09:34:28.560Z,21.16
2023-05-08T09:36:56.717Z,21.90
2023-05-08T09:39:25.196Z,21.72
2023-05-08T09:42:02.872Z,21.22
2023-05-08T09:44:44.823Z,22.06
2023-05-08T09:47:21.814Z,21.58
2023-05-08T09:50:00.760Z,21.86
2023-05-08T09:52:31.520Z,22.28
2023-05-08T09:54:59.748Z,22.03
2023-05-08T09:57:32.071Z,22.34
2023-05-08T10:00:13.357Z,22.58
2023-05-08T10:02:42.370Z,22.36
2023-05-08T10:05:24.571Z,22.53
2023-05-08T10:07:51.976Z,22.01
2023-05-08T10:10:27.079Z,22.38
2023-05-08T10:12:57.680Z,21.86
2023-05-08T10:15:31.874Z,21.84
2023-05-08T10:18:06.426Z,21.77
2023-05-08T10:20:35.116Z,21.95
2023-05-08T10:23:02.315Z,21.51
2023-05-08T10:25:34.682Z,21.29
2023-05-08T10:28:18.008Z,21.35
2023-05-08T10:30:50.036Z,21.39
2023-05-08T10:33:21.624Z,21.65
2023-05-08T10:35:49.098Z,21.42
2023-05-08T10:38:18.534Z,22.07
2023-05-08T10:40:50.630Z,22.31
2023-05-08T10:43:19.501Z,22.03
2023-05-08T10:45:46.469Z,22.19
2023-05-08T10:48:30.862Z,22.11
2023-05-08T10:51:09.260Z,22.04
2023-05-08T10:53:54.793Z,21.98
2023-05-08T10:56:30.805Z,22.38
2023-05-08T10:58:59.266Z,22.44
2023-05-08T11:01:26.918Z,21.55
2023-05-08T11:03:56.261Z,22.38
2023-05-08T11:06:46.244Z,22.69
2023-05-08T11:09:43.408Z,22.58
2023-05-08T11:12:30.915Z,22.69
2023-05-08T11:15:05.238Z,22.15
2023-05-08T11:17:32.947Z,22.46
2023-05-08T11:20:02.759Z,22.87
2023-05-08T11:22:32.772Z,23.02
2023-05-08T11:25:00.371Z,22.85
2023-05-08T11:28:05.814Z,22.51
2023-05-08T11:30:32.617Z,22.54
2023-05-08T11:33:05.904Z,22.59
2023-05-08T11:35:56.743Z,22.50
2023-05-08T11:38:36.096Z,22.39
2023-05-08T11:41:08.083Z,22.81
2023-05-08T11:43:38.988Z,23.21
2023-05-08T11:46:17.110Z,23.32
2023-05-08T11:48:44.536Z,22.82
2023-05-08T11:51:11.609Z,22.93
2023-05-08T11:53:38.490Z,23.43
2023-05-08T11:56:06.019Z,23.36
2023-05-08T11:58:32.914Z,23.37
2023-05-08T12:00:59.758Z,22.86
2023-05-08T12:03:26.782Z,23.21
2023-05-08T12:05:58.229Z,23.53
2023-05-08T12:08:25.265Z,22.26
2023-05-08T12:10:58.561Z,22.69
2023-05-08T12:13:27.370Z,23.15
2023-05-08T12:15:59.532Z,23.61
2023-05-08T12:18:28.686Z,23.51
2023-05-08T12:21:01.752Z,23.37
2023-05-08T12:23:29.760Z,23.56
2023-05-08T12:26:00.973Z,22.77
2023-05-08T12:28:28.241Z,22.83
2023-05-08T12:30:55.350Z,23.12
2023-05-08T12:33:22.212Z,23.38
2023-05-08T12:35:49.536Z,23.24
2023-05-08T12:38:16.297Z,23.16
2023-05-08T12:40:52.953Z,23.68
2023-05-08T12:43:19.753Z,23.64
2023-05-08T12:45:53.189Z,23.81
2023-05-08T12:48:20.538Z,23.81
2023-05-08T12:50:47.577Z,23.86
2023-05-08T12:53:16.600Z,23.62
2023-05-08T12:55:57.458Z,23.22
2023-05-08T12:58:25.751Z,23.35
2023-05-08T13:00:53.903Z,23.51
2023-05-08T13:03:27.849Z,22.71
2023-05-08T13:05:56.493Z,23.59
2023-05-08T13:08:42.324Z,23.67
2023-05-08T13:11:09.442Z,23.83
2023-05-08T13:13:37.092Z,23.38
2023-05-08T13:16:05.901Z,23.47
2023-05-08T13:18:33.532Z,23.71
2023-05-08T13:21:02.257Z,23.70
2023-05-08T13:23:29.358Z,23.79
2023-05-08T13:25:56.218Z,23.59
2023-05-08T13:28:26.907Z,23.82
2023-05-08T13:30:59.245Z,24.24
2023-05-08T13:33:30.945Z,23.90
2023-05-08T13:36:01.456Z,23.58
2023-05-08T13:38:28.265Z,23.42
2023-05-08T13:40:54.997Z,23.88
2023-05-08T13:43:21.785Z,23.57
2023-05-08T13:45:48.589Z,24.17
2023-05-08T13:48:15.705Z,23.98
2023-05-08T13:50:42.516Z,24.28
2023-05-08T13:53:10.156Z,23.67
2023-05-08T13:55:37.081Z,23.90
2023-05-08T13:58:04.319Z,23.74
2023-05-08T14:00:31.602Z,23.73
2023-05-08T14:02:58.478Z,24.03
2023-05-08T14:05:25.368Z,24.05
2023-05-08T14:07:52.054Z,24.22
2023-05-08T14:10:18.907Z,23.81
2023-05-08T14:12:46.870Z,23.72
2023-05-08T14:15:14.060Z,23.98
2023-05-08T14:17:42.414Z,23.17
2023-05-08T14:20:11.707Z,22.83
2023-05-08T14:22:39.076Z,23.73
2023-05-08T14:25:06.983Z,22.93
2023-05-08T14:27:36.236Z,23.64
2023-05-08T14:30:03.658Z,24.19
2023-05-08T14:32:33.117Z,24.31
2023-05-08T14:35:00.062Z,24.06
2023-05-08T14:37:29.918Z,23.65
2023-05-08T14:40:06.803Z,23.51
2023-05-08T14:42:37.107Z,23.04
2023-05-08T14:45:04.386Z,23.21
2023-05-08T14:47:33.045Z,23.49
2023-05-08T14:49:59.833Z,23.67
2023-05-08T14:52:26.510Z,23.64
2023-05-08T14:54:53.936Z,24.02
2023-05-08T14:57:21.079Z,23.76
2023-05-08T14:59:55.022Z,23.77
2023-05-08T15:02:23.548Z,23.89
2023-05-08T15:04:50.478Z,23.88
2023-05-08T15:07:17.344Z,23.45
2023-05-08T15:09:44.211Z,24.16
2023-05-08T15:12:11.306Z,23.27
2023-05-08T15:14:37.988Z,23.60
2023-05-08T15:17:04.896Z,23.54
2023-05-08T15:19:32.614Z,23.21
2023-05-08T15:21:59.365Z,23.41
2023-05-08T15:24:26.094Z,23.18
2023-05-08T15:26:52.985Z,23.84
2023-05-08T15:29:19.823Z,24.23
2023-05-08T15:31:46.772Z,23.14
2023-05-08T15:34:13.898Z,23.57
2023-05-08T15:36:40.602Z,23.72
2023-05-08T15:39:07.462Z,23.89
2023-05-08T15:41:36.423Z,23.62
2023-05-08T15:44:04.252Z,23.51
2023-05-08T15:46:31.567Z,23.15
2023-05-08T15:49:00.388Z,23.40
2023-05-08T15:51:29.201Z,23.13
2023-05-08T15:53:56.309Z,23.36
2023-05-08T15:56:24.730Z,23.44
2023-05-08T15:58:52.086Z,22.84
2023-05-08T16:01:19.636Z,22.93
2023-05-08T16:03:46.790Z,22.86
2023-05-08T16:06:13.569Z,22.86
2023-05-08T16:08:40.604Z,22.87
2023-05-08T16:11:07.613Z,22.64
2023-05-08T16:13:34.863Z,22.66
2023-05-08T16:16:04.408Z,22.96
2023-05-08T16:18:31.219Z,23.07
2023-05-08T16:20:58.089Z,23.27
2023-05-08T16:23:24.807Z,23.17
2023-05-08T16:25:51.594Z,23.17
2023-05-08T16:28:18.353Z,22.89
2023-05-08T16:30:45.382Z,22.68
2023-05-08T16:33:12.637Z,22.95
2023-05-08T16:35:40.179Z,23.23
2023-05-08T16:38:10.080Z,22.91
2023-05-08T16:40:40.131Z,23.40
2023-05-08T16:43:08.900Z,23.07
2023-05-08T16:45:35.713Z,23.45
2023-05-08T16:48:03.012Z,22.86
2023-05-08T16:50:29.887Z,23.09
2023-05-08T16:52:57.683Z,22.83
2023-05-08T16:55:24.780Z,22.94
2023-05-08T16:57:53.690Z,22.49
2023-05-08T17:00:21.534Z,22.85
2023-05-08T17:02:48.549Z,22.41
2023-05-08T17:05:15.675Z,22.84
2023-05-08T17:07:42.742Z,22.99
2023-05-08T17:10:10.911Z,22.63
2023-05-08T17:12:37.655Z,22.58
2023-05-08T17:15:05.290Z,22.58
2023-05-08T17:17:32.128Z,22.36
2023-05-08T17:19:59.154Z,22.71
2023-05-08T17:22:26.065Z,22.60
2023-05-08T17:24:52.901Z,22.75
2023-05-08T17:27:19.729Z,22.67
2023-05-08T17:29:46.677Z,22.76
2023-05-08T17:32:13.445Z,22.99
2023-05-08T17:34:40.355Z,22.37
2023-05-08T17:37:07.206Z,22.48
2023-05-08T17:39:33.966Z,21.90
2023-05-08T17:42:00.993Z,22.09
2023-05-08T17:44:27.792Z,21.79
2023-05-08T17:46:59.931Z,22.59
2023-05-08T17:49:26.739Z,22.44
2023-05-08T17:51:53.507Z,21.71
2023-05-08T17:54:21.680Z,22.68
2023-05-08T17:56:48.706Z,21.93
2023-05-08T17:59:15.629Z,22.01
2023-05-08T18:01:42.523Z,22.36
2023-05-08T18:04:09.517Z,22.66
2023-05-08T18:06:36.379Z,22.17
2023-05-08T18:09:03.322Z,22.00
2023-05-08T18:11:30.337Z,21.79
2023-05-08T18:13:57.260Z,21.83
2023-05-08T18:16:26.393Z,21.92
2023-05-08T18:19:02.624Z,21.95
2023-05-08T18:21:33.836Z,22.28
2023-05-08T18:24:00.925Z,22.11
2023-05-08T18:26:27.796Z,22.20
2023-05-08T18:28:55.398Z,21.75
2023-05-08T18:31:22.531Z,21.79
2023-05-08T18:33:49.345Z,21.26
2023-05-08T18:36:16.280Z,21.73
2023-05-08T18:38:43.030Z,20.71
2023-05-08T18:41:10.059Z,21.61
2023-05-08T18:43:39.531Z,21.67
2023-05-08T18:46:12.573Z,21.15
2023-05-08T18:48:41.996Z,20.72
2023-05-08T18:51:09.576Z,20.80
2023-05-08T18:53:40.966Z,20.63
2023-05-08T18:56:07.894Z,20.34
2023-05-08T18:58:35.256Z,20.78
2023-05-08T19:01:02.186Z,20.85
2023-05-08T19:03:29.617Z,20.22
2023-05-08T19:05:59.638Z,21.03
2023-05-08T19:08:26.695Z,20.91
2023-05-08T19:10:53.734Z,20.93
2023-05-08T19:13:20.683Z,20.08
2023-05-08T19:15:47.547Z,19.93
2023-05-08T19:18:14.857Z,20.74
2023-05-08T19:20:42.187Z,20.38
2023-05-08T19:23:09.252Z,20.20
2023-05-08T19:25:40.626Z,20.41
2023-05-08T19:28:07.437Z,20.69
2023-05-08T19:30:34.336Z,21.02
2023-05-08T19:33:01.149Z,20.49
2023-05-08T19:35:28.073Z,20.44
2023-05-08T19:37:56.436Z,20.14
2023-05-08T19:40:26.288Z,20.09
2023-05-08T19:42:53.122Z,19.82
2023-05-08T19:45:20.282Z,20.44
2023-05-08T19:47:49.881Z,20.30
2023-05-08T19:50:20.915Z,20.10
2023-05-08T19:52:49.058Z,20.23
2023-05-08T19:55:16.567Z,19.83
2023-05-08T19:57:43.587Z,19.92
2023-05-08T20:00:11.551Z,20.17
2023-05-08T20:02:39.567Z,20.03
2023-05-08T20:07:36.828Z,20.20
2023-05-08T20:10:06.128Z,20.07
2023-05-08T20:12:33.164Z,20.06
2023-05-08T20:15:00.043Z,20.66
2023-05-08T20:17:36.708Z,20.75
2023-05-08T20:20:03.796Z,20.31
2023-05-08T20:22:41.252Z,20.07
2023-05-08T20:25:11.776Z,20.45
2023-05-08T20:27:39.801Z,20.23
2023-05-08T20:30:07.705Z,20.15
2023-05-08T20:32:34.560Z,19.76
2023-05-08T20:35:01.963Z,19.64
2023-05-08T20:37:28.802Z,20.14
2023-05-08T20:39:56.595Z,20.39
2023-05-08T20:42:23.375Z,20.14
2023-05-08T20:44:50.432Z,20.19
2023-05-08T20:47:17.251Z,20.13
2023-05-08T20:49:44.071Z,20.30
2023-05-08T20:52:10.829Z,20.25
2023-05-08T20:54:37.664Z,20.35
2023-05-08T20:57:04.524Z,20.40
2023-05-08T20:59:31.449Z,20.74
2023-05-08T21:01:58.309Z,20.91
2023-05-08T21:04:25.268Z,20.57
2023-05-08T21:06:52.392Z,20.89
2023-05-08T21:09:19.286Z,20.94
2023-05-08T21:11:46.223Z,20.81
2023-05-08T21:14:12.925Z,20.94
2023-05-08T21:16:42.392Z,20.59
2023-05-08T21:19:11.299Z,20.46
2023-05-08T21:21:38.201Z,20.38
2023-05-08T21:24:05.706Z,20.55
2023-05-08T21:26:32.624Z,20.53
2023-05-08T21:29:04.377Z,20.56
2023-05-08T21:31:32.372Z,20.34
2023-05-08T21:33:59.406Z,20.37
2023-05-08T21:36:26.112Z,20.56
2023-05-08T21:38:52.970Z,20.58
2023-05-08T21:41:19.685Z,20.56
2023-05-08T21:43:46.525Z,20.47
2023-05-08T21:46:15.849Z,20.53
2023-05-08T21:48:45.966Z,20.05
2023-05-08T21:51:15.740Z,20.15
2023-05-08T21:53:42.649Z,19.99
2023-05-08T21:56:09.868Z,20.38
2023-05-08T21:58:38.947Z,20.25
2023-05-08T22:01:11.791Z,20.46
2023-05-08T22:03:46.246Z,20.41
2023-05-08T22:06:16.082Z,20.59
2023-05-08T22:08:51.573Z,20.29
2023-05-08T22:11:19.213Z,20.33
2023-05-08T22:13:45.979Z,20.20
2023-05-08T22:16:12.930Z,20.36
2023-05-08T22:18:39.661Z,20.06
2023-05-08T22:21:06.569Z,19.97
2023-05-08T22:23:37.346Z,20.26
2023-05-08T22:26:04.890Z,20.06
2023-05-08T22:28:31.789Z,20.00
2023-05-08T22:30:59.254Z,20.12
2023-05-08T22:33:26.212Z,19.99
2023-05-08T22:35:53.065Z,19.93
2023-05-08T22:38:19.842Z,20.13
2023-05-08T22:40:47.849Z,20.39
2023-05-08T22:43:14.785Z,19.96
2023-05-08T22:45:41.708Z,20.40
2023-05-08T22:48:08.693Z,19.96
2023-05-08T22:50:36.639Z,19.23
2023-05-08T22:53:08.378Z,19.63
2023-05-08T22:55:35.928Z,19.91
2023-05-08T22:58:03.173Z,19.84
2023-05-08T23:00:30.162Z,19.66
2023-05-08T23:02:57.484Z,19.63
2023-05-08T23:05:24.272Z,19.92
2023-05-08T23:07:51.058Z,19.67
2023-05-08T23:10:18.698Z,19.93
2023-05-08T23:12:45.513Z,19.73
2023-05-08T23:15:13.081Z,19.42
2023-05-08T23:17:40.301Z,19.27
2023-05-08T23:20:08.718Z,19.31
2023-05-08T23:22:35.635Z,19.39
2023-05-08T23:25:02.488Z,19.81
2023-05-08T23:27:29.247Z,19.68
2023-05-08T23:29:56.690Z,19.32
2023-05-08T23:32:23.559Z,19.23
2023-05-08T23:34:50.311Z,19.10
2023-05-08T23:37:17.203Z,19.12
2023-05-08T23:39:44.116Z,19.14
2023-05-08T23:42:11.428Z,19.54
2023-05-08T23:44:38.262Z,19.52
2023-05-08T23:47:05.155Z,19.52
2023-05-08T23:49:31.897Z,18.93
2023-05-08T23:51:58.806Z,19.29
2023-05-08T23:54:25.725Z,19.33
2023-05-08T23:56:52.594Z,19.42
2023-05-08T23:59:19.362Z,19.50
